createdAt,value
2023-02-09T00:01:24.708Z,6.90
2023-02-09T00:03:53.074Z,6.73
2023-02-09T00:06:23.931Z,6.93
2023-02-09T00:08:51.403Z,7.53
2023-02-09T00:11:45.623Z,6.77
2023-02-09T00:14:14.711Z,6.57
2023-02-09T00:16:42.128Z,6.77
2023-02-09T00:19:09.330Z,6.73
2023-02-09T00:21:36.483Z,6.43
2023-02-09T00:24:04.587Z,6.30
2023-02-09T00:26:31.467Z,6.17
2023-02-09T00:28:58.523Z,6.50
2023-02-09T00:31:25.633Z,6.20
2023-02-09T00:33:52.850Z,6.30
2023-02-09T00:36:19.863Z,7.03
2023-02-09T00:42:53.430Z,7.00
2023-02-09T00:45:20.221Z,6.30
2023-02-09T00:47:47.070Z,5.80
2023-02-09T00:50:13.985Z,5.53
2023-02-09T00:52:40.865Z,6.27
2023-02-09T00:55:07.952Z,6.77
2023-02-09T00:57:36.069Z,6.50
2023-02-09T01:00:08.374Z,6.73
2023-02-09T01:02:35.391Z,6.27
2023-02-09T01:05:02.645Z,6.90
2023-02-09T01:07:29.523Z,6.80
2023-02-09T01:09:56.329Z,6.67
2023-02-09T01:12:23.232Z,6.57
2023-02-09T01:14:50.043Z,7.00
2023-02-09T01:17:17.009Z,6.00
2023-02-09T01:19:43.841Z,7.17
2023-02-09T01:22:12.272Z,6.50
2023-02-09T01:24:40.701Z,6.17
2023-02-09T01:27:07.530Z,5.90
2023-02-09T01:29:34.355Z,6.13
2023-02-09T01:32:01.343Z,5.83
2023-02-09T01:51:00.107Z,6.23
2023-02-09T01:53:28.128Z,5.97
2023-02-09T01:56:02.417Z,5.37
2023-02-09T01:58:29.444Z,6.43
2023-02-09T02:00:57.135Z,5.97
2023-02-09T02:03:27.755Z,6.07
2023-02-09T02:06:05.973Z,6.70
2023-02-09T02:08:40.264Z,6.10
2023-02-09T02:11:08.998Z,6.07
2023-02-09T02:13:36.767Z,6.90
2023-02-09T02:16:22.851Z,6.53
2023-02-09T02:19:19.426Z,6.17
2023-02-09T02:22:04.317Z,6.33
2023-02-09T02:25:17.790Z,6.37
2023-02-09T02:28:08.846Z,6.00
2023-02-09T02:31:46.182Z,6.13
2023-02-09T02:34:21.781Z,6.30
2023-02-09T02:36:58.459Z,6.07
2023-02-09T02:39:39.619Z,7.00
2023-02-09T02:42:52.075Z,6.57
2023-02-09T02:45:43.587Z,7.10
2023-02-09T02:48:45.748Z,6.03
2023-02-09T02:51:25.030Z,6.50
2023-02-09T02:53:57.205Z,6.20
2023-02-09T02:56:36.482Z,6.17
2023-02-09T02:59:08.358Z,6.43
2023-02-09T03:01:43.869Z,6.63
2023-02-09T03:04:13.117Z,7.10
2023-02-09T03:06:39.991Z,6.87
2023-02-09T03:09:07.128Z,6.53
2023-02-09T03:11:43.664Z,7.33
2023-02-09T03:14:16.194Z,6.23
2023-02-09T03:17:12.440Z,6.50
2023-02-09T03:19:51.663Z,6.37
2023-02-09T03:22:24.992Z,6.93
2023-02-09T03:25:32.471Z,6.57
2023-02-09T03:28:08.804Z,6.10
2023-02-09T03:30:36.952Z,6.90
2023-02-09T03:33:05.233Z,7.20
2023-02-09T03:35:39.301Z,6.60
2023-02-09T03:38:07.162Z,7.13
2023-02-09T03:40:34.838Z,6.27
2023-02-09T03:43:01.666Z,6.70
2023-02-09T03:45:28.512Z,6.50
2023-02-09T03:47:55.368Z,5.93
2023-02-09T03:50:22.174Z,6.50
2023-02-09T03:52:49.072Z,6.63
2023-02-09T03:55:15.875Z,7.07
2023-02-09T03:57:42.788Z,6.53
2023-02-09T04:00:10.682Z,5.93
2023-02-09T04:02:37.507Z,6.53
2023-02-09T04:05:05.865Z,6.33
2023-02-09T04:07:33.102Z,6.23
2023-02-09T04:09:59.937Z,6.87
2023-02-09T04:12:26.754Z,6.07
2023-02-09T04:14:53.582Z,6.30
2023-02-09T04:17:20.418Z,6.33
2023-02-09T04:19:47.206Z,5.73
2023-02-09T04:22:14.057Z,6.47
2023-02-09T04:24:40.863Z,6.17
2023-02-09T04:27:07.726Z,6.37
2023-02-09T04:29:34.527Z,6.77
2023-02-09T04:32:01.383Z,6.17
2023-02-09T04:34:28.274Z,6.37
2023-02-09T04:36:55.132Z,6.20
2023-02-09T04:39:22.011Z,6.20
2023-02-09T04:41:48.847Z,6.43
2023-02-09T04:44:15.647Z,6.03
2023-02-09T04:46:44.154Z,6.53
2023-02-09T04:49:12.731Z,7.00
2023-02-09T04:51:39.544Z,6.93
2023-02-09T04:54:06.365Z,6.60
2023-02-09T04:56:33.246Z,6.03
2023-02-09T04:59:18.374Z,6.60
2023-02-09T05:01:45.245Z,5.30
2023-02-09T05:04:12.023Z,6.00
2023-02-09T05:06:38.857Z,6.07
2023-02-09T05:09:05.669Z,5.73
2023-02-09T05:11:32.484Z,6.50
2023-02-09T05:13:59.278Z,6.70
2023-02-09T05:16:26.176Z,6.50
2023-02-09T05:18:53.013Z,6.33
2023-02-09T05:21:19.857Z,6.57
2023-02-09T05:23:46.861Z,7.47
2023-02-09T05:26:13.690Z,5.43
2023-02-09T05:28:40.498Z,6.40
2023-02-09T05:31:07.381Z,6.33
2023-02-09T05:33:34.252Z,6.80
2023-02-09T05:36:01.175Z,6.40
2023-02-09T05:38:27.966Z,6.53
2023-02-09T05:40:54.833Z,6.43
2023-02-09T05:43:21.651Z,6.40
2023-02-09T05:45:48.626Z,6.03
2023-02-09T05:48:15.481Z,6.93
2023-02-09T05:50:42.320Z,6.03
2023-02-09T05:53:09.639Z,6.60
2023-02-09T05:55:36.587Z,7.57
2023-02-09T05:58:03.752Z,6.93
2023-02-09T06:00:31.049Z,6.83
2023-02-09T06:02:58.737Z,6.60
2023-02-09T06:05:26.082Z,6.90
2023-02-09T06:07:53.049Z,7.50
2023-02-09T06:10:20.120Z,7.50
2023-02-09T06:12:47.264Z,6.77
2023-02-09T06:15:16.233Z,6.83
2023-02-09T06:17:43.151Z,6.97
2023-02-09T06:20:10.916Z,7.33
2023-02-09T06:22:37.757Z,6.97
2023-02-09T06:25:04.895Z,7.33
2023-02-09T06:27:31.724Z,7.77
2023-02-09T06:29:58.536Z,7.57
2023-02-09T06:32:25.398Z,7.50
2023-02-09T06:34:52.238Z,7.37
2023-02-09T06:37:19.089Z,7.70
2023-02-09T06:39:45.892Z,7.60
2023-02-09T06:42:12.741Z,8.03
2023-02-09T06:44:39.603Z,8.03
2023-02-09T06:47:06.452Z,8.53
2023-02-09T06:49:33.262Z,9.20
2023-02-09T06:52:00.274Z,10.40
2023-02-09T06:54:29.233Z,10.10
2023-02-09T06:56:56.140Z,9.53
2023-02-09T06:59:23.375Z,9.80
2023-02-09T07:01:54.572Z,9.07
2023-02-09T07:04:22.476Z,8.70
2023-02-09T07:06:49.381Z,8.47
2023-02-09T07:09:16.218Z,9.60
2023-02-09T07:11:43.710Z,8.27
2023-02-09T07:14:10.702Z,9.50
2023-02-09T07:16:37.519Z,9.43
2023-02-09T07:19:04.377Z,8.00
2023-02-09T07:21:31.191Z,8.97
2023-02-09T07:23:58.040Z,8.40
2023-02-09T07:26:24.923Z,7.63
2023-02-09T07:28:51.842Z,9.60
2023-02-09T07:31:19.340Z,9.40
2023-02-09T07:33:46.618Z,8.47
2023-02-09T07:36:16.100Z,8.63
2023-02-09T07:38:43.646Z,8.23
2023-02-09T07:41:17.111Z,7.80
2023-02-09T07:43:44.217Z,7.67
2023-02-09T07:46:14.851Z,8.03
2023-02-09T07:48:41.924Z,7.87
2023-02-09T07:51:19.684Z,7.70
2023-02-09T07:53:47.660Z,8.57
2023-02-09T07:56:14.489Z,9.67
2023-02-09T07:58:41.277Z,8.80
2023-02-09T08:01:11.791Z,9.07
2023-02-09T08:03:41.567Z,8.07
2023-02-09T08:06:41.599Z,9.17
2023-02-09T08:09:10.844Z,10.60
2023-02-09T08:11:49.389Z,10.50
2023-02-09T08:14:27.004Z,9.83
2023-02-09T08:17:18.755Z,10.27
2023-02-09T08:19:51.499Z,10.33
2023-02-09T08:22:18.929Z,10.43
2023-02-09T08:24:45.795Z,11.07
2023-02-09T08:27:12.698Z,10.73
2023-02-09T08:29:39.697Z,10.00
2023-02-09T08:32:06.617Z,10.70
2023-02-09T08:34:33.471Z,10.20
2023-02-09T08:37:00.281Z,10.70
2023-02-09T08:39:27.148Z,12.60
2023-02-09T08:41:53.920Z,12.13
2023-02-09T08:44:20.745Z,11.33
2023-02-09T08:46:47.726Z,12.20
2023-02-09T08:49:14.830Z,11.97
2023-02-09T08:51:41.684Z,12.53
2023-02-09T08:54:08.539Z,11.57
2023-02-09T08:56:35.408Z,12.57
2023-02-09T08:59:02.279Z,12.57
2023-02-09T09:01:29.254Z,12.73
2023-02-09T09:03:56.200Z,16.90
2023-02-09T09:06:23.205Z,13.40
2023-02-09T09:08:51.561Z,12.80
2023-02-09T09:11:18.580Z,13.30
2023-02-09T09:13:45.552Z,13.40
2023-02-09T09:16:21.939Z,12.80
2023-02-09T09:18:49.246Z,13.37
2023-02-09T09:21:18.527Z,12.63
2023-02-09T09:23:47.052Z,14.00
2023-02-09T09:26:15.650Z,13.03
2023-02-09T09:28:42.657Z,13.83
2023-02-09T09:31:16.568Z,14.30
2023-02-09T09:33:44.617Z,14.30
2023-02-09T09:36:12.665Z,14.33
2023-02-09T09:38:40.307Z,14.30
2023-02-09T09:41:21.387Z,15.00
2023-02-09T09:43:48.837Z,14.00
2023-02-09T09:46:21.140Z,14.90
2023-02-09T09:48:57.644Z,14.57
2023-02-09T09:51:44.843Z,14.83
2023-02-09T09:54:21.207Z,15.23
2023-02-09T09:56:50.104Z,15.23
2023-02-09T09:59:24.164Z,16.33
2023-02-09T10:01:54.122Z,15.47
2023-02-09T10:04:21.180Z,17.03
2023-02-09T10:06:59.430Z,16.57
2023-02-09T10:09:35.128Z,16.07
2023-02-09T10:12:18.373Z,15.67
2023-02-09T10:14:45.247Z,16.80
2023-02-09T10:17:12.070Z,16.93
2023-02-09T10:19:39.005Z,17.27
2023-02-09T10:22:13.429Z,16.30
2023-02-09T10:24:41.886Z,16.30
2023-02-09T10:27:29.517Z,16.90
2023-02-09T10:30:18.205Z,16.77
2023-02-09T10:32:45.113Z,18.00
2023-02-09T10:35:35.098Z,16.17
2023-02-09T10:38:04.047Z,15.90
2023-02-09T10:40:40.346Z,17.10
2023-02-09T10:43:26.538Z,14.83
2023-02-09T10:46:18.118Z,15.67
2023-02-09T10:48:47.220Z,14.33
2023-02-09T10:51:29.429Z,15.83
2023-02-09T10:53:58.202Z,15.03
2023-02-09T10:56:36.711Z,15.00
2023-02-09T10:59:16.668Z,14.73
2023-02-09T11:01:55.084Z,15.10
2023-02-09T11:04:26.090Z,14.17
2023-02-09T11:06:54.916Z,14.33
2023-02-09T11:09:33.588Z,13.67
2023-02-09T11:12:01.130Z,13.53
2023-02-09T11:14:28.517Z,13.10
2023-02-09T11:17:14.640Z,14.43
2023-02-09T11:20:21.458Z,13.67
2023-02-09T11:23:25.862Z,14.60
2023-02-09T11:26:05.241Z,13.70
2023-02-09T11:28:56.571Z,12.87
2023-02-09T11:31:54.185Z,13.00
2023-02-09T11:35:04.590Z,12.10
2023-02-09T11:37:54.137Z,12.27
2023-02-09T11:40:43.026Z,12.43
2023-02-09T11:43:37.806Z,12.57
2023-02-09T11:46:15.824Z,12.83
2023-02-09T11:49:12.989Z,13.10
2023-02-09T11:51:43.995Z,13.20
2023-02-09T11:54:20.982Z,13.93
2023-02-09T11:56:56.361Z,15.70
2023-02-09T11:59:46.978Z,15.40
2023-02-09T12:02:47.380Z,13.67
2023-02-09T12:05:19.908Z,13.33
2023-02-09T12:08:01.742Z,13.73
2023-02-09T12:10:29.104Z,13.97
2023-02-09T12:13:20.084Z,13.70
2023-02-09T12:15:54.772Z,13.77
2023-02-09T12:18:26.108Z,13.80
2023-02-09T12:21:00.382Z,13.13
2023-02-09T12:23:33.908Z,13.93
2023-02-09T12:26:15.979Z,13.10
2023-02-09T12:28:49.422Z,12.90
2023-02-09T12:31:22.799Z,13.70
2023-02-09T12:33:49.588Z,13.77
2023-02-09T12:36:16.364Z,14.77
2023-02-09T12:38:56.917Z,15.20
2023-02-09T12:41:42.930Z,15.67
2023-02-09T12:44:09.641Z,15.70
2023-02-09T12:46:46.631Z,23.03
2023-02-09T12:49:20.537Z,15.20
2023-02-09T12:51:50.401Z,20.20
2023-02-09T12:54:48.851Z,15.23
2023-02-09T12:57:15.601Z,15.70
2023-02-09T13:00:04.830Z,15.00
2023-02-09T13:02:49.695Z,14.43
2023-02-09T13:05:38.091Z,15.73
2023-02-09T13:08:29.921Z,14.40
2023-02-09T13:11:20.342Z,14.80
2023-02-09T13:13:58.004Z,14.60
2023-02-09T13:16:42.113Z,13.27
2023-02-09T13:20:04.010Z,13.70
2023-02-09T13:22:44.363Z,13.17
2023-02-09T13:25:27.049Z,14.03
2023-02-09T13:27:53.906Z,14.40
2023-02-09T13:30:32.440Z,13.43
2023-02-09T13:33:48.436Z,14.33
2023-02-09T13:37:00.703Z,13.80
2023-02-09T13:39:32.375Z,14.10
2023-02-09T13:41:59.383Z,14.07
2023-02-09T13:44:29.943Z,12.97
2023-02-09T13:47:01.955Z,13.13
2023-02-09T13:49:30.148Z,13.43
2023-02-09T13:52:14.585Z,14.17
2023-02-09T13:54:43.394Z,14.00
2023-02-09T13:57:31.344Z,13.57
2023-02-09T14:00:23.439Z,14.13
2023-02-09T14:03:12.499Z,13.63
2023-02-09T14:05:49.485Z,13.30
2023-02-09T14:08:18.387Z,14.17
2023-02-09T14:10:59.850Z,14.00
2023-02-09T14:13:44.319Z,13.27
2023-02-09T14:16:15.769Z,14.07
2023-02-09T14:18:53.862Z,13.73
2023-02-09T14:21:37.828Z,24.07
2023-02-09T14:24:27.616Z,13.77
2023-02-09T14:27:06.267Z,12.67
2023-02-09T14:29:36.814Z,12.77
2023-02-09T14:32:45.237Z,11.93
2023-02-09T14:35:34.672Z,12.17
2023-02-09T14:38:03.161Z,11.30
2023-02-09T14:40:34.358Z,11.73
2023-02-09T14:43:01.216Z,11.63
2023-02-09T14:45:38.799Z,10.63
2023-02-09T14:48:25.832Z,11.33
2023-02-09T14:51:04.707Z,11.30
2023-02-09T14:53:33.194Z,11.70
2023-02-09T14:56:00.100Z,12.43
2023-02-09T14:58:30.610Z,12.80
2023-02-09T15:01:00.760Z,12.03
2023-02-09T15:03:27.705Z,12.07
2023-02-09T15:06:04.528Z,13.27
2023-02-09T15:08:36.086Z,12.70
2023-02-09T15:11:28.653Z,13.17
2023-02-09T15:14:03.944Z,12.70
2023-02-09T15:16:31.352Z,13.00
2023-02-09T15:18:58.391Z,12.80
2023-02-09T15:21:25.266Z,12.40
2023-02-09T15:23:52.060Z,12.40
2023-02-09T15:26:22.631Z,12.73
2023-02-09T15:28:49.445Z,12.70
2023-02-09T15:31:16.512Z,12.70
2023-02-09T15:33:43.909Z,12.87
2023-02-09T15:36:19.183Z,13.07
2023-02-09T15:38:46.164Z,13.23
2023-02-09T15:41:31.468Z,13.30
2023-02-09T15:44:23.749Z,22.53
2023-02-09T15:47:08.791Z,17.57
2023-02-09T15:49:35.628Z,16.60
2023-02-09T15:52:02.504Z,16.47
2023-02-09T15:54:32.474Z,30.60
2023-02-09T15:57:01.057Z,19.23
2023-02-09T15:59:27.934Z,20.53
2023-02-09T16:01:54.793Z,18.90
2023-02-09T16:04:21.848Z,16.37
2023-02-09T16:06:54.026Z,20.87
2023-02-09T16:09:28.668Z,20.87
2023-02-09T16:11:55.774Z,17.77
2023-02-09T16:14:25.804Z,17.17
2023-02-09T16:16:52.789Z,18.47
2023-02-09T16:19:21.126Z,17.17
2023-02-09T16:21:54.268Z,14.53
2023-02-09T16:24:39.720Z,16.00
2023-02-09T16:27:33.105Z,19.00
2023-02-09T16:29:59.974Z,23.33
2023-02-09T16:32:28.629Z,22.87
2023-02-09T16:35:04.568Z,20.27
2023-02-09T16:37:37.940Z,16.00
2023-02-09T16:40:26.868Z,14.97
2023-02-09T16:42:54.715Z,13.90
2023-02-09T16:45:22.602Z,15.10
2023-02-09T16:47:54.912Z,14.73
2023-02-09T16:50:33.762Z,13.60
2023-02-09T16:53:04.179Z,13.67
2023-02-09T16:55:36.560Z,13.87
2023-02-09T16:58:05.403Z,13.23
2023-02-09T17:00:36.818Z,13.73
2023-02-09T17:03:19.770Z,14.10
2023-02-09T17:05:55.722Z,22.27
2023-02-09T17:08:32.091Z,21.60
2023-02-09T17:11:01.170Z,19.13
2023-02-09T17:13:29.407Z,13.93
2023-02-09T17:16:05.566Z,14.03
2023-02-09T17:18:42.271Z,13.93
2023-02-09T17:21:19.920Z,15.20
2023-02-09T17:23:46.814Z,21.27
2023-02-09T17:26:14.472Z,26.40
2023-02-09T17:28:43.152Z,19.57
2023-02-09T17:31:18.664Z,18.63
2023-02-09T17:33:50.152Z,18.53
2023-02-09T17:36:26.545Z,19.03
2023-02-09T17:38:56.722Z,20.67
2023-02-09T17:41:34.519Z,22.40
2023-02-09T17:44:28.621Z,22.07
2023-02-09T17:46:58.863Z,17.67
2023-02-09T17:49:25.779Z,17.47
2023-02-09T17:51:52.977Z,17.33
2023-02-09T17:54:21.069Z,17.67
2023-02-09T17:56:47.979Z,18.83
2023-02-09T17:59:14.958Z,19.60
2023-02-09T18:01:49.518Z,20.07
2023-02-09T18:04:26.845Z,19.00
2023-02-09T18:06:54.348Z,18.87
2023-02-09T18:09:22.378Z,18.20
2023-02-09T18:11:52.199Z,17.17
2023-02-09T18:14:22.156Z,18.13
2023-02-09T18:16:50.158Z,18.83
2023-02-09T18:19:17.723Z,19.83
2023-02-09T18:22:00.737Z,22.17
2023-02-09T18:24:33.608Z,22.03
2023-02-09T18:27:01.124Z,21.73
2023-02-09T18:29:30.547Z,22.93
2023-02-09T18:32:02.437Z,20.67
2023-02-09T18:34:29.554Z,20.17
2023-02-09T18:36:56.598Z,20.57
2023-02-09T18:39:23.430Z,22.10
2023-02-09T18:41:54.542Z,25.07
2023-02-09T18:44:28.523Z,25.40
2023-02-09T18:46:57.206Z,25.67
2023-02-09T18:49:24.106Z,22.60
2023-02-09T18:51:52.110Z,25.93
2023-02-09T18:54:19.111Z,29.80
2023-02-09T18:56:46.007Z,28.67
2023-02-09T18:59:12.855Z,29.00
2023-02-09T19:01:40.538Z,34.27
2023-02-09T19:04:08.203Z,33.03
2023-02-09T19:06:35.595Z,31.40
2023-02-09T19:09:02.872Z,30.63
2023-02-09T19:11:29.947Z,28.97
2023-02-09T19:14:15.229Z,28.93
2023-02-09T19:16:42.856Z,33.83
2023-02-09T19:19:09.674Z,32.07
2023-02-09T19:21:36.854Z,28.77
2023-02-09T19:24:04.449Z,28.97
2023-02-09T19:26:31.299Z,27.63
2023-02-09T19:28:58.147Z,29.60
2023-02-09T19:31:25.363Z,35.50
2023-02-09T19:33:56.941Z,40.27
2023-02-09T19:36:25.137Z,30.80
2023-02-09T19:38:52.010Z,27.33
2023-02-09T19:41:20.483Z,31.73
2023-02-09T19:43:47.397Z,30.00
2023-02-09T19:46:14.235Z,32.87
2023-02-09T19:48:41.680Z,29.77
2023-02-09T19:51:08.880Z,28.83
2023-02-09T19:53:36.128Z,27.23
2023-02-09T19:56:02.941Z,27.33
2023-02-09T19:58:29.873Z,28.30
2023-02-09T20:00:56.938Z,28.50
2023-02-09T20:03:24.798Z,26.03
2023-02-09T20:05:51.850Z,26.30
2023-02-09T20:08:20.041Z,24.93
2023-02-09T20:10:47.574Z,25.20
2023-02-09T20:13:15.735Z,24.90
2023-02-09T20:15:44.050Z,25.73
2023-02-09T20:18:12.730Z,26.47
2023-02-09T20:20:42.191Z,26.43
2023-02-09T20:23:10.111Z,25.43
2023-02-09T20:25:41.509Z,24.63
2023-02-09T20:28:08.762Z,25.27
2023-02-09T20:30:35.738Z,25.20
2023-02-09T20:33:02.812Z,25.53
2023-02-09T20:35:29.724Z,25.80
2023-02-09T20:37:56.795Z,25.83
2023-02-09T20:40:23.800Z,26.40
2023-02-09T20:43:09.272Z,26.77
2023-02-09T20:45:54.770Z,27.57
2023-02-09T20:48:21.662Z,25.87
2023-02-09T20:50:48.747Z,26.83
2023-02-09T20:53:15.920Z,25.87
2023-02-09T20:55:43.192Z,27.33
2023-02-09T20:58:13.386Z,28.00
2023-02-09T21:00:42.189Z,27.77
2023-02-09T21:03:09.356Z,27.67
2023-02-09T21:05:36.239Z,26.47
2023-02-09T21:08:04.497Z,27.67
2023-02-09T21:10:35.746Z,27.30
2023-02-09T21:13:07.080Z,27.77
2023-02-09T21:15:38.208Z,25.53
2023-02-09T21:18:06.646Z,26.60
2023-02-09T21:20:35.315Z,27.10
2023-02-09T21:23:02.352Z,26.80
2023-02-09T21:25:29.359Z,26.33
2023-02-09T21:27:59.135Z,26.70
2023-02-09T21:30:27.618Z,27.73
2023-02-09T21:32:56.138Z,28.30
2023-02-09T21:35:23.212Z,26.97
2023-02-09T21:37:50.036Z,26.40
2023-02-09T21:40:17.176Z,28.13
2023-02-09T21:42:44.017Z,27.13
2023-02-09T21:45:10.975Z,27.47
2023-02-09T21:47:39.718Z,28.77
2023-02-09T21:50:09.688Z,28.00
2023-02-09T21:52:36.580Z,25.37
2023-02-09T21:55:04.539Z,26.97
2023-02-09T21:57:31.463Z,28.30
2023-02-09T21:59:59.782Z,27.20
2023-02-09T22:02:27.432Z,26.57
2023-02-09T22:04:54.400Z,28.60
2023-02-09T22:07:21.190Z,27.47
2023-02-09T22:09:48.063Z,27.77
2023-02-09T22:12:14.859Z,27.77
2023-02-09T22:14:41.705Z,27.57
2023-02-09T22:17:08.671Z,27.60
2023-02-09T22:19:36.490Z,27.30
2023-02-09T22:22:04.381Z,28.47
2023-02-09T22:24:34.715Z,28.07
2023-02-09T22:27:02.943Z,30.10
2023-02-09T22:29:30.442Z,28.97
2023-02-09T22:31:58.281Z,28.80
2023-02-09T22:34:25.664Z,28.80
2023-02-09T22:36:53.982Z,29.73
2023-02-09T22:39:21.857Z,27.87
2023-02-09T22:41:48.793Z,27.23
2023-02-09T22:44:17.284Z,26.63
2023-02-09T22:46:45.505Z,26.73
2023-02-09T22:49:19.029Z,26.80
2023-02-09T22:51:48.398Z,27.97
2023-02-09T22:54:18.580Z,27.17
2023-02-09T22:56:45.641Z,28.47
2023-02-09T22:59:14.901Z,27.53
2023-02-09T23:01:42.556Z,26.93
2023-02-09T23:04:09.737Z,27.20
2023-02-09T23:06:36.663Z,27.70
2023-02-09T23:09:07.324Z,28.77
2023-02-09T23:11:34.596Z,27.73
2023-02-09T23:14:10.810Z,28.07
2023-02-09T23:16:40.242Z,28.27
2023-02-09T23:19:09.413Z,28.43
2023-02-09T23:21:41.420Z,28.73
2023-02-09T23:24:09.434Z,25.87
2023-02-09T23:26:37.082Z,27.97
2023-02-09T23:29:07.935Z,27.60
2023-02-09T23:31:35.534Z,28.00
2023-02-09T23:34:02.985Z,28.67
2023-02-09T23:36:33.490Z,29.67
2023-02-09T23:39:04.730Z,29.70
2023-02-09T23:41:32.051Z,28.50
2023-02-09T23:44:00.412Z,28.07
2023-02-09T23:46:29.167Z,30.13
2023-02-09T23:48:57.057Z,28.60
2023-02-09T23:51:29.558Z,28.30
2023-02-09T23:53:58.889Z,28.53
2023-02-09T23:56:27.466Z,28.90
2023-02-09T23:58:54.747Z,27.77
